Navigator Of The Seas — C6FU4 — position and weather

sailwx.info

Track history (hours):
 
Tides and Currents Weather Stations Pressure Air Temp Water Temp Dewpoint Dewpoint Depression Visibility Wind Speed Wind Dir Waves Ship Positions

Navigator Of The Seas

Operator: Royal Caribbean Cruises Ltd

Last reported at 2019-Oct-18 23:30 UTC. Time now 2019-Oct-18 23:59 UTC.
Position N 25°57' W 079°42'.

Type: Passenger vessel. MMSI: 311478000.

Date/timePositionNaut miles runAvg speedWind from/ knotsBaromVisibWave heightAir tempDewpointWater temp
2019-Oct-18 23:30N 25°57' W 079°42'510.2
2019-Oct-18 23:00N 25°55' W 079°47'510.1
2019-Oct-18 22:30N 25°52' W 079°52'510.4
2019-Oct-18 22:00N 25°50' W 079°57'510.5
2019-Oct-18 21:30N 25°48' W 080°03'510.6
2019-Oct-18 21:00N 25°46' W 080°08'1 2.6
2019-Oct-18 20:30N 25°46' W 080°09'0 0.0
2019-Oct-18 20:00N 25°46' W 080°09'0 0.0
2019-Oct-18 19:30N 25°46' W 080°09'0 0.0
2019-Oct-18 19:00N 25°46' W 080°09'0 0.0
2019-Oct-18 18:30N 25°46' W 080°09'0 0.0
2019-Oct-18 18:00N 25°46' W 080°09'0 0.0
2019-Oct-18 17:30N 25°46' W 080°09'0 0.0
2019-Oct-18 17:00N 25°46' W 080°09'0 0.0
2019-Oct-18 16:30N 25°46' W 080°09'0 0.0
2019-Oct-18 16:00N 25°46' W 080°09'0 0.0
2019-Oct-18 15:30N 25°46' W 080°09'0 0.0
2019-Oct-18 15:00N 25°46' W 080°09'0 0.0
2019-Oct-18 14:30N 25°46' W 080°09'0 0.0
2019-Oct-18 14:00N 25°46' W 080°09'0 0.0
2019-Oct-18 13:30N 25°46' W 080°09'0 0.0
2019-Oct-18 13:00N 25°46' W 080°09'0 0.0
2019-Oct-18 12:30N 25°46' W 080°09'0 0.0
2019-Oct-18 12:00N 25°46' W 080°09'0 0.0
2019-Oct-18 11:30N 25°46' W 080°09'0 0.0
2019-Oct-18 11:00N 25°46' W 080°09'0 0.0
2019-Oct-18 10:30N 25°46' W 080°09'0 0.1
2019-Oct-18 10:00N 25°46' W 080°09'2 3.0
2019-Oct-18 09:30N 25°47' W 080°11'4 7.3
2019-Oct-18 09:00N 25°46' W 080°07'511.0
2019-Oct-18 08:30N 25°47' W 080°02'5 9.2
2019-Oct-18 08:00N 25°50' W 079°57'5 9.1
2019-Oct-18 07:30N 25°53' W 079°53'2 4.9
2019-Oct-18 07:00N 25°54' W 079°51'3 6.0
2019-Oct-18 06:30N 25°55' W 079°48'3 6.2
2019-Oct-18 06:00N 25°57' W 079°45'3 6.1
2019-Oct-18 05:30N 25°59' W 079°42'3 5.2
2019-Oct-18 05:00N 26°00' W 079°40'3 5.2
2019-Oct-18 04:30N 26°01' W 079°37'3 5.4
2019-Oct-18 04:00N 26°03' W 079°35'3 5.5
2019-Oct-18 03:30N 26°04' W 079°32'3 5.8
2019-Oct-18 03:00N 26°06' W 079°30'3 6.3
2019-Oct-18 02:30N 26°08' W 079°27'3 6.2
2019-Oct-18 02:00N 26°09' W 079°24'3271.1
2019-Oct-18 02:00N 26°06' W 079°24'611.8 200 / 81019.210.8 26.0 29.0
2019-Oct-18 01:30N 26°11' W 079°21'3 6.2
2019-Oct-18 01:00N 26°13' W 079°18'3 6.2
2019-Oct-18 00:30N 26°14' W 079°15'4 6.8
2019-Oct-17 23:59N 26°16' W 079°12'3 6.3
2019-Oct-17 23:30N 26°17' W 079°09'3 6.5
2019-Oct-17 22:59N 26°17' W 079°05'3 6.5
2019-Oct-17 22:27N 26°17' W 079°01'  
2019-Oct-15 03:00N 26°06' W 078°48'2613.5 050 / 161024.210.8 27.0 28.0
2019-Oct-15 01:05N 26°06' W 079°17'214.7
2019-Oct-15 00:58N 26°06' W 079°18'714.7
2019-Oct-15 00:30N 26°02' W 079°25'714.8
2019-Oct-15 00:00N 25°59' W 079°32'714.4
2019-Oct-14 23:30N 25°56' W 079°40'714.0
2019-Oct-14 23:00N 25°53' W 079°47'714.1
2019-Oct-14 22:30N 25°50' W 079°54'714.3
2019-Oct-14 22:00N 25°47' W 080°01'5 9.8
2019-Oct-14 21:30N 25°46' W 080°06'4 8.5
2019-Oct-14 21:00N 25°47' W 080°11'1 2.3
2019-Oct-14 20:30N 25°46' W 080°10'0 0.0
2019-Oct-14 19:55N 25°46' W 080°10'0 0.0
2019-Oct-14 19:25N 25°46' W 080°10'0 0.0
2019-Oct-14 18:55N 25°46' W 080°10'0 0.0
2019-Oct-14 18:25N 25°46' W 080°10'0 0.0
2019-Oct-14 17:55N 25°46' W 080°10'0 0.0
2019-Oct-14 17:25N 25°46' W 080°10'0 0.0
2019-Oct-14 16:55N 25°46' W 080°10'0 0.0
2019-Oct-14 16:25N 25°46' W 080°10'0 0.0
2019-Oct-14 15:55N 25°46' W 080°10'0 0.0
2019-Oct-14 15:25N 25°46' W 080°10'0 0.0
2019-Oct-14 14:55N 25°46' W 080°10'0 0.0
2019-Oct-14 14:25N 25°46' W 080°10'0 0.0
2019-Oct-14 13:55N 25°46' W 080°10'0 0.0
2019-Oct-14 13:25N 25°46' W 080°10'0 0.0
2019-Oct-14 12:55N 25°46' W 080°10'0 0.0
2019-Oct-14 12:25N 25°46' W 080°10'0 0.0
2019-Oct-14 11:55N 25°46' W 080°10'0 0.0
2019-Oct-14 11:25N 25°46' W 080°10'0 0.0
2019-Oct-14 10:55N 25°46' W 080°10'0 0.0
2019-Oct-14 10:25N 25°46' W 080°10'0 0.0
2019-Oct-14 09:55N 25°46' W 080°10'1 1.9
2019-Oct-14 09:30N 25°46' W 080°09'511.0
2019-Oct-14 09:00N 25°47' W 080°03'612.0
2019-Oct-14 08:30N 25°49' W 079°57'612.5
2019-Oct-14 08:00N 25°52' W 079°50'612.6
2019-Oct-14 07:31N 25°55' W 079°44'612.9
2019-Oct-14 07:01N 25°58' W 079°38'713.4
2019-Oct-14 06:30N 26°01' W 079°31'713.5
2019-Oct-14 06:01N 26°04' W 079°25'714.1
2019-Oct-14 05:29N 26°06' W 079°17'93 3.6
2019-Oct-13 04:00N 25°48' W 077°36'92 3.6 080 / 161022.210.8 25.0 28.0
2019-Oct-12 02:50N 26°09' W 079°15'3 9.8
2019-Oct-12 02:29N 26°08' W 079°19'5 9.4
2019-Oct-12 02:00N 26°06' W 079°23'5344.0
2019-Oct-12 02:00N 26°06' W 079°18'918.7 070 / 281021.2 5.4 25.0 28.0
2019-Oct-12 01:30N 26°04' W 079°28'5 9.0
2019-Oct-12 01:00N 26°02' W 079°32'4 8.4
2019-Oct-12 00:30N 25°60' W 079°36'4 8.6
2019-Oct-12 00:00N 25°58' W 079°41'4 8.8
2019-Oct-11 23:31N 25°56' W 079°45'4 8.7
2019-Oct-11 23:01N 25°53' W 079°49'5 9.0
2019-Oct-11 22:31N 25°51' W 079°53'5 9.3
2019-Oct-11 22:01N 25°48' W 079°57'5 9.3
2019-Oct-11 21:31N 25°46' W 080°02'5 9.0
2019-Oct-11 21:00N 25°45' W 080°07'3 5.0
2019-Oct-11 20:29N 25°46' W 080°09'0 0.0
2019-Oct-11 19:59N 25°46' W 080°09'0 0.0
2019-Oct-11 19:29N 25°46' W 080°09'0 0.0
2019-Oct-11 18:59N 25°46' W 080°09'0 0.0
2019-Oct-11 18:29N 25°46' W 080°09'0 0.0
2019-Oct-11 17:59N 25°46' W 080°09'0 0.0
2019-Oct-11 17:29N 25°46' W 080°09'0 0.0
2019-Oct-11 16:59N 25°46' W 080°09'0 0.0
2019-Oct-11 16:29N 25°46' W 080°09'0 0.0
2019-Oct-11 15:59N 25°46' W 080°09'0 0.0
2019-Oct-11 15:29N 25°46' W 080°09'0 0.0
2019-Oct-11 14:59N 25°46' W 080°09'0 0.0
2019-Oct-11 14:29N 25°46' W 080°09'0 0.0
2019-Oct-11 13:59N 25°46' W 080°09'0 0.0
2019-Oct-11 13:29N 25°46' W 080°09'0 0.0
2019-Oct-11 12:59N 25°46' W 080°09'0 0.0
2019-Oct-11 12:29N 25°46' W 080°09'0 0.0
2019-Oct-11 11:59N 25°46' W 080°09'0 0.0
2019-Oct-11 11:29N 25°46' W 080°09'0 0.0
2019-Oct-11 10:59N 25°46' W 080°09'0 0.0
2019-Oct-11 10:29N 25°46' W 080°09'0 0.4
2019-Oct-11 10:01N 25°46' W 080°10'0 0.9
2019-Oct-11 09:31N 25°47' W 080°10'510.4
2019-Oct-11 09:01N 25°46' W 080°04'5 9.1
2019-Oct-11 08:30N 25°48' W 079°60'510.4
2019-Oct-11 08:00N 25°51' W 079°55'611.1
2019-Oct-11 07:30N 25°54' W 079°50'610.9
2019-Oct-11 07:00N 25°57' W 079°45'510.9
2019-Oct-11 06:30N 26°00' W 079°40'611.3
2019-Oct-11 06:00N 26°03' W 079°34'611.3
2019-Oct-11 05:30N 26°06' W 079°29'611.5
2019-Oct-11 05:00N 26°09' W 079°24'611.8
2019-Oct-11 04:30N 26°13' W 079°18'611.8
2019-Oct-11 03:59N 26°16' W 079°13'2211.2
2019-Oct-11 02:00N 26°12' W 078°48'101 4.2 050 / 201019.210.8 27.0 28.0
2019-Oct-10 02:00N 25°12' W 077°18'38 1.4 030 / 31020.210.8 25.0 28.0
2019-Oct-09 00:00N 25°48' W 077°30'   210 / 141019.210.8 27.0 28.0
Track history (hours):
 
Tides and Currents Weather Stations Pressure Air Temp Water Temp Dewpoint Dewpoint Depression Visibility Wind Speed Wind Dir Waves Ship Positions

Navigator Of The Seas

Operator: Royal Caribbean Cruises Ltd

Last reported at 2019-Oct-18 23:30 UTC. Time now 2019-Oct-18 23:59 UTC.
Position N 25°57' W 079°42'.

Type: Passenger vessel. MMSI: 311478000.

Date/timePositionNaut miles runAvg speedWind from/ knotsBaromVisibWave heightAir tempDewpointWater temp
2019-Oct-18 23:30N 25°57' W 079°42'510.2
2019-Oct-18 23:00N 25°55' W 079°47'510.1
2019-Oct-18 22:30N 25°52' W 079°52'510.4
2019-Oct-18 22:00N 25°50' W 079°57'510.5
2019-Oct-18 21:30N 25°48' W 080°03'510.6
2019-Oct-18 21:00N 25°46' W 080°08'1 2.6
2019-Oct-18 20:30N 25°46' W 080°09'0 0.0
2019-Oct-18 20:00N 25°46' W 080°09'0 0.0
2019-Oct-18 19:30N 25°46' W 080°09'0 0.0
2019-Oct-18 19:00N 25°46' W 080°09'0 0.0
2019-Oct-18 18:30N 25°46' W 080°09'0 0.0
2019-Oct-18 18:00N 25°46' W 080°09'0 0.0
2019-Oct-18 17:30N 25°46' W 080°09'0 0.0
2019-Oct-18 17:00N 25°46' W 080°09'0 0.0
2019-Oct-18 16:30N 25°46' W 080°09'0 0.0
2019-Oct-18 16:00N 25°46' W 080°09'0 0.0
2019-Oct-18 15:30N 25°46' W 080°09'0 0.0
2019-Oct-18 15:00N 25°46' W 080°09'0 0.0
2019-Oct-18 14:30N 25°46' W 080°09'0 0.0
2019-Oct-18 14:00N 25°46' W 080°09'0 0.0
2019-Oct-18 13:30N 25°46' W 080°09'0 0.0
2019-Oct-18 13:00N 25°46' W 080°09'0 0.0
2019-Oct-18 12:30N 25°46' W 080°09'0 0.0
2019-Oct-18 12:00N 25°46' W 080°09'0 0.0
2019-Oct-18 11:30N 25°46' W 080°09'0 0.0
2019-Oct-18 11:00N 25°46' W 080°09'0 0.0
2019-Oct-18 10:30N 25°46' W 080°09'0 0.1
2019-Oct-18 10:00N 25°46' W 080°09'2 3.0
2019-Oct-18 09:30N 25°47' W 080°11'4 7.3
2019-Oct-18 09:00N 25°46' W 080°07'511.0
2019-Oct-18 08:30N 25°47' W 080°02'5 9.2
2019-Oct-18 08:00N 25°50' W 079°57'5 9.1
2019-Oct-18 07:30N 25°53' W 079°53'2 4.9
2019-Oct-18 07:00N 25°54' W 079°51'3 6.0
2019-Oct-18 06:30N 25°55' W 079°48'3 6.2
2019-Oct-18 06:00N 25°57' W 079°45'3 6.1
2019-Oct-18 05:30N 25°59' W 079°42'3 5.2
2019-Oct-18 05:00N 26°00' W 079°40'3 5.2
2019-Oct-18 04:30N 26°01' W 079°37'3 5.4
2019-Oct-18 04:00N 26°03' W 079°35'3 5.5
2019-Oct-18 03:30N 26°04' W 079°32'3 5.8
2019-Oct-18 03:00N 26°06' W 079°30'3 6.3
2019-Oct-18 02:30N 26°08' W 079°27'3 6.2
2019-Oct-18 02:00N 26°09' W 079°24'3271.1
2019-Oct-18 02:00N 26°06' W 079°24'611.8 200 / 81019.210.8 26.0 29.0
2019-Oct-18 01:30N 26°11' W 079°21'3 6.2
2019-Oct-18 01:00N 26°13' W 079°18'3 6.2
2019-Oct-18 00:30N 26°14' W 079°15'4 6.8
2019-Oct-17 23:59N 26°16' W 079°12'3 6.3
2019-Oct-17 23:30N 26°17' W 079°09'3 6.5
2019-Oct-17 22:59N 26°17' W 079°05'3 6.5
2019-Oct-17 22:27N 26°17' W 079°01'  
2019-Oct-15 03:00N 26°06' W 078°48'2613.5 050 / 161024.210.8 27.0 28.0
2019-Oct-15 01:05N 26°06' W 079°17'214.7
2019-Oct-15 00:58N 26°06' W 079°18'714.7
2019-Oct-15 00:30N 26°02' W 079°25'714.8
2019-Oct-15 00:00N 25°59' W 079°32'714.4
2019-Oct-14 23:30N 25°56' W 079°40'714.0
2019-Oct-14 23:00N 25°53' W 079°47'714.1
2019-Oct-14 22:30N 25°50' W 079°54'714.3
2019-Oct-14 22:00N 25°47' W 080°01'5 9.8
2019-Oct-14 21:30N 25°46' W 080°06'4 8.5
2019-Oct-14 21:00N 25°47' W 080°11'1 2.3
2019-Oct-14 20:30N 25°46' W 080°10'0 0.0
2019-Oct-14 19:55N 25°46' W 080°10'0 0.0
2019-Oct-14 19:25N 25°46' W 080°10'0 0.0
2019-Oct-14 18:55N 25°46' W 080°10'0 0.0
2019-Oct-14 18:25N 25°46' W 080°10'0 0.0
2019-Oct-14 17:55N 25°46' W 080°10'0 0.0
2019-Oct-14 17:25N 25°46' W 080°10'0 0.0
2019-Oct-14 16:55N 25°46' W 080°10'0 0.0
2019-Oct-14 16:25N 25°46' W 080°10'0 0.0
2019-Oct-14 15:55N 25°46' W 080°10'0 0.0
2019-Oct-14 15:25N 25°46' W 080°10'0 0.0
2019-Oct-14 14:55N 25°46' W 080°10'0 0.0
2019-Oct-14 14:25N 25°46' W 080°10'0 0.0
2019-Oct-14 13:55N 25°46' W 080°10'0 0.0
2019-Oct-14 13:25N 25°46' W 080°10'0 0.0
2019-Oct-14 12:55N 25°46' W 080°10'0 0.0
2019-Oct-14 12:25N 25°46' W 080°10'0 0.0
2019-Oct-14 11:55N 25°46' W 080°10'0 0.0
2019-Oct-14 11:25N 25°46' W 080°10'0 0.0
2019-Oct-14 10:55N 25°46' W 080°10'0 0.0
2019-Oct-14 10:25N 25°46' W 080°10'0 0.0
2019-Oct-14 09:55N 25°46' W 080°10'1 1.9
2019-Oct-14 09:30N 25°46' W 080°09'511.0
2019-Oct-14 09:00N 25°47' W 080°03'612.0
2019-Oct-14 08:30N 25°49' W 079°57'612.5
2019-Oct-14 08:00N 25°52' W 079°50'612.6
2019-Oct-14 07:31N 25°55' W 079°44'612.9
2019-Oct-14 07:01N 25°58' W 079°38'713.4
2019-Oct-14 06:30N 26°01' W 079°31'713.5
2019-Oct-14 06:01N 26°04' W 079°25'714.1
2019-Oct-14 05:29N 26°06' W 079°17'93 3.6
2019-Oct-13 04:00N 25°48' W 077°36'92 3.6 080 / 161022.210.8 25.0 28.0
2019-Oct-12 02:50N 26°09' W 079°15'3 9.8
2019-Oct-12 02:29N 26°08' W 079°19'5 9.4
2019-Oct-12 02:00N 26°06' W 079°23'5344.0
2019-Oct-12 02:00N 26°06' W 079°18'918.7 070 / 281021.2 5.4 25.0 28.0
2019-Oct-12 01:30N 26°04' W 079°28'5 9.0
2019-Oct-12 01:00N 26°02' W 079°32'4 8.4
2019-Oct-12 00:30N 25°60' W 079°36'4 8.6
2019-Oct-12 00:00N 25°58' W 079°41'4 8.8
2019-Oct-11 23:31N 25°56' W 079°45'4 8.7
2019-Oct-11 23:01N 25°53' W 079°49'5 9.0
2019-Oct-11 22:31N 25°51' W 079°53'5 9.3
2019-Oct-11 22:01N 25°48' W 079°57'5 9.3
2019-Oct-11 21:31N 25°46' W 080°02'5 9.0
2019-Oct-11 21:00N 25°45' W 080°07'3 5.0
2019-Oct-11 20:29N 25°46' W 080°09'0 0.0
2019-Oct-11 19:59N 25°46' W 080°09'0 0.0
2019-Oct-11 19:29N 25°46' W 080°09'0 0.0
2019-Oct-11 18:59N 25°46' W 080°09'0 0.0
2019-Oct-11 18:29N 25°46' W 080°09'0 0.0
2019-Oct-11 17:59N 25°46' W 080°09'0 0.0
2019-Oct-11 17:29N 25°46' W 080°09'0 0.0
2019-Oct-11 16:59N 25°46' W 080°09'0 0.0
2019-Oct-11 16:29N 25°46' W 080°09'0 0.0
2019-Oct-11 15:59N 25°46' W 080°09'0 0.0
2019-Oct-11 15:29N 25°46' W 080°09'0 0.0
2019-Oct-11 14:59N 25°46' W 080°09'0 0.0
2019-Oct-11 14:29N 25°46' W 080°09'0 0.0
2019-Oct-11 13:59N 25°46' W 080°09'0 0.0
2019-Oct-11 13:29N 25°46' W 080°09'0 0.0
2019-Oct-11 12:59N 25°46' W 080°09'0 0.0
2019-Oct-11 12:29N 25°46' W 080°09'0 0.0
2019-Oct-11 11:59N 25°46' W 080°09'0 0.0
2019-Oct-11 11:29N 25°46' W 080°09'0 0.0
2019-Oct-11 10:59N 25°46' W 080°09'0 0.0
2019-Oct-11 10:29N 25°46' W 080°09'0 0.4
2019-Oct-11 10:01N 25°46' W 080°10'0 0.9
2019-Oct-11 09:31N 25°47' W 080°10'510.4
2019-Oct-11 09:01N 25°46' W 080°04'5 9.1
2019-Oct-11 08:30N 25°48' W 079°60'510.4
2019-Oct-11 08:00N 25°51' W 079°55'611.1
2019-Oct-11 07:30N 25°54' W 079°50'610.9
2019-Oct-11 07:00N 25°57' W 079°45'510.9
2019-Oct-11 06:30N 26°00' W 079°40'611.3
2019-Oct-11 06:00N 26°03' W 079°34'611.3
2019-Oct-11 05:30N 26°06' W 079°29'611.5
2019-Oct-11 05:00N 26°09' W 079°24'611.8
2019-Oct-11 04:30N 26°13' W 079°18'611.8
2019-Oct-11 03:59N 26°16' W 079°13'2211.2
2019-Oct-11 02:00N 26°12' W 078°48'101 4.2 050 / 201019.210.8 27.0 28.0
2019-Oct-10 02:00N 25°12' W 077°18'38 1.4 030 / 31020.210.8 25.0 28.0
2019-Oct-09 00:00N 25°48' W 077°30'   210 / 141019.210.8 27.0 28.0

Dump ship's entire track history